North Clarendon, VT

9:19 PM EDT on October 25, 2014 (GMT -0400)
Rutland State | Change Station
CLOSE
Current Station
Airport
Location: Rutland,
Elevation: 787 ft
Nearby Weather Stations

Elev 787 ft 43.53 °N, 72.95 °W | Updated 4 minutes ago

Mostly Cloudy
Mostly Cloudy
50 °F
Feels Like 50 °F
N
7
Wind Variable Wind from ESE

Today
High -- | Low -- °F
--% Chance of Precip.
Yesterday
High -- | Low -- °F
Precip. -- in
7:18 AM 5:52 PM
Waxing Crescent, 5% visible
Pressure 29.50 in
Visibility 10.0 miles
Clouds Few 4600 ft
Scattered Clouds 8000 ft
Mostly Cloudy 12000 ft
Dew Point 46 °F
Humidity 87%
Rainfall 0.00 in
Snow Depth Not available.
UV 0 out of 12
Pollen .20 out of 12
Ozone Good
PM2.5 Good
Flu Activity Sporadic
METAR KRUT 260115Z 11006KT 10SM FEW046 SCT080 BKN120 10/08 A2950 RMK AO1

More Conditions Fewer Conditions

Pressure 29.50 in
Visibility 10.0 miles
Clouds Few 4600 ft
Scattered Clouds 8000 ft
Mostly Cloudy 12000 ft
Dew Point 46 °F
Humidity 87%
Rainfall 0.00 in
Snow Depth Not available.
UV 0 out of 12
Pollen .20 out of 12
Ozone Good
PM2.5 Good
Flu Activity Sporadic
METAR KRUT 260115Z 11006KT 10SM FEW046 SCT080 BKN120 10/08 A2950 RMK AO1

More Conditions Fewer Conditions

10-Day Weather Forecast

Almanac

Astronomy

Oct. 25, 2014 Rise Set
Actual Time 7:18 AM EDT 5:52 PM EDT
Civil Twilight 6:48 AM EDT 6:22 PM EDT
Nautical Twilight 6:15 AM EDT 6:55 PM EDT
Astronomical Twilight 5:42 AM EDT 7:28 PM EDT
Moon 8:56 AM EDT (10/25) 7:11 PM EDT (10/25)
Length of Visible Light 11h 33m
Length of Day
10h 34m
Tomorrow will be 2m 46s shorter.
Waxing Crescent, 5% of the Moon is Illuminated
Today
Waxing Crescent
Oct 30
First Quarter
Nov 6
Full
Nov 14
Last Quarter
Nov 22
New

Today's Extremes

State Highs State Lows

Community

WunderPhotos

Upload Photos

1,765,058 photos uploaded!

Nearby

Air Quality

  Air Quality AQ Index Pollutant
Yesterday Good
OZONE
Current Good
PM2.5
Current Good
OZONE
Saturday Good
PM2.5
Sunday Good
PM2.5
Monday Good
PM2.5

Snow Depth

Station Depth Elevation
No new snow has been reported.

Earthquake Activity

City Distance Mag. Time & Date
No recent earthquake activity has been reported nearby.
Minimum magnitude displayed is 2.5.

Coastal Water Temperatures

Place Temperature
No Stations Reporting

Nearby Weather Stations